Time;durP1;ratioP1;P1;durP2;ratioP2;P2;SDS_P1;SDS_P2;PMS_P1;PMS_P2;Temp;Humidity;BMP_temperature;BMP_pressure;BME280_temperature;BME280_humidity;BME280_pressure;Samples;Min_cycle;Max_cycle;Signal;HPM_P1;HPM_P2
2022/12/14 00:01:09;;;;;;;37.80;14.85;;;-2.90;99.90;;;;;;4224223;28;20040;-86
2022/12/14 00:03:10;;;;;;;38.97;15.55;;;-2.80;99.90;;;;;;4224018;28;20048;-85
2022/12/14 00:05:18;;;;;;;39.83;15.65;;;-2.80;99.90;;;;;;4238536;28;20063;-85
2022/12/14 00:07:21;;;;;;;34.22;14.95;;;-2.70;99.90;;;;;;4219260;28;20081;-85
2022/12/14 00:09:23;;;;;;;37.70;14.23;;;-2.80;99.90;;;;;;4225881;28;20094;-85
2022/12/14 00:11:38;;;;;;;37.28;15.77;;;-2.80;99.90;;;;;;4224177;28;20044;-85
2022/12/14 00:13:42;;;;;;;33.22;14.98;;;-2.90;99.90;;;;;;4207368;28;20051;-84
2022/12/14 00:15:45;;;;;;;37.63;14.48;;;-2.90;99.90;;;;;;4206965;28;20432;-85
2022/12/14 00:17:49;;;;;;;41.00;16.00;;;-2.90;99.90;;;;;;4207717;28;20360;-86
2022/12/14 00:19:55;;;;;;;37.55;15.20;;;-3.00;99.90;;;;;;4225680;28;20476;-85
2022/12/14 00:22:00;;;;;;;34.40;14.10;;;-2.90;99.90;;;;;;4206372;28;20044;-86
2022/12/14 00:24:07;;;;;;;36.53;15.27;;;-3.20;99.90;;;;;;4205654;28;20048;-86
2022/12/14 00:26:19;;;;;;;34.33;14.65;;;-3.60;99.90;;;;;;4224128;28;20040;-85
2022/12/14 00:28:22;;;;;;;38.88;16.10;;;-3.20;99.90;;;;;;4208131;28;20056;-85
2022/12/14 00:30:24;;;;;;;38.45;14.18;;;-2.90;99.90;;;;;;4206775;28;20037;-84
2022/12/14 00:32:27;;;;;;;32.65;13.10;;;-2.10;99.90;;;;;;4206075;28;20098;-86
2022/12/14 00:34:30;;;;;;;36.13;14.48;;;-3.10;99.90;;;;;;4223746;28;20044;-85
2022/12/14 00:36:36;;;;;;;40.53;15.40;;;-3.40;99.90;;;;;;4207226;28;20115;-85
2022/12/14 00:38:41;;;;;;;37.53;14.65;;;-3.20;99.90;;;;;;4225292;28;20059;-85
2022/12/14 00:40:44;;;;;;;39.28;15.20;;;-3.20;99.90;;;;;;4206772;28;20048;-85
2022/12/14 00:42:55;;;;;;;34.72;13.48;;;-4.00;99.90;;;;;;4224495;28;20044;-86
2022/12/14 00:45:03;;;;;;;34.28;14.15;;;-3.20;99.90;;;;;;4207909;28;20044;-85
2022/12/14 00:47:06;;;;;;;31.00;13.90;;;-1.70;99.90;;;;;;4207912;28;20063;-85
2022/12/14 00:49:16;;;;;;;39.28;15.00;;;-3.30;99.90;;;;;;4207411;28;20291;-85
2022/12/14 00:51:19;;;;;;;40.60;14.68;;;-2.00;99.90;;;;;;4207187;28;20048;-84
2022/12/14 00:53:23;;;;;;;31.38;13.93;;;-3.30;99.90;;;;;;4223589;28;20054;-85
2022/12/14 00:55:25;;;;;;;38.78;15.48;;;-3.30;99.90;;;;;;4223396;28;20090;-85
2022/12/14 00:57:32;;;;;;;37.55;15.63;;;-3.30;99.90;;;;;;4223237;28;20033;-84
2022/12/14 00:59:35;;;;;;;36.13;14.70;;;-3.30;99.90;;;;;;4207542;28;20048;-85
2022/12/14 01:01:38;;;;;;;33.72;14.05;;;-3.50;99.90;;;;;;4232510;28;20134;-84
2022/12/14 01:03:42;;;;;;;34.10;15.10;;;-4.40;99.90;;;;;;4245908;28;20043;-85
2022/12/14 01:05:47;;;;;;;35.75;13.68;;;-2.50;99.90;;;;;;4224971;28;20048;-86
2022/12/14 01:07:48;;;;;;;37.13;14.55;;;-3.50;99.90;;;;;;4226835;28;20059;-85
2022/12/14 01:09:53;;;;;;;36.20;15.27;;;-2.60;99.90;;;;;;4246853;28;20048;-86
2022/12/14 01:11:56;;;;;;;34.22;13.98;;;-3.60;99.90;;;;;;4247333;28;20066;-84
2022/12/14 01:14:03;;;;;;;34.85;14.18;;;-3.60;99.90;;;;;;4249018;28;20055;-85
2022/12/14 01:16:08;;;;;;;31.02;12.55;;;-3.80;99.90;;;;;;4231076;28;20044;-86
2022/12/14 01:18:11;;;;;;;30.20;13.32;;;-3.70;99.90;;;;;;4247798;28;20051;-86
2022/12/14 01:20:16;;;;;;;32.20;13.10;;;-3.60;99.90;;;;;;4228946;28;20020;-85
2022/12/14 01:22:18;;;;;;;32.10;13.80;;;-3.90;99.90;;;;;;4223624;28;20058;-86
2022/12/14 01:24:20;;;;;;;33.10;13.60;;;-3.80;99.90;;;;;;4224425;28;20488;-86
2022/12/14 01:26:24;;;;;;;30.30;13.88;;;-3.50;99.90;;;;;;4241200;28;20036;-85
2022/12/14 01:28:26;;;;;;;30.55;13.02;;;-4.00;99.90;;;;;;4241193;28;20488;-86
2022/12/14 01:30:28;;;;;;;33.55;12.93;;;-3.50;99.90;;;;;;4240349;28;20063;-85
2022/12/14 01:32:30;;;;;;;31.20;13.48;;;-2.30;99.90;;;;;;4240851;28;20047;-85
2022/12/14 01:34:39;;;;;;;29.58;12.85;;;-3.90;99.90;;;;;;4241137;28;20131;-85
2022/12/14 01:36:42;;;;;;;30.85;13.77;;;-4.20;99.90;;;;;;4241637;28;20136;-85
2022/12/14 01:38:44;;;;;;;31.45;13.60;;;-4.20;99.90;;;;;;4225190;28;20044;-86
2022/12/14 01:40:56;;;;;;;28.67;12.63;;;-4.30;99.90;;;;;;4224905;28;20108;-86
2022/12/14 01:43:01;;;;;;;33.95;13.60;;;-3.40;99.90;;;;;;4243526;28;20046;-86
2022/12/14 01:45:04;;;;;;;33.13;13.85;;;-4.90;99.90;;;;;;4249007;28;20023;-85
2022/12/14 01:47:20;;;;;;;31.83;12.73;;;-4.20;99.90;;;;;;4234420;28;20028;-86
2022/12/14 01:49:33;;;;;;;33.63;13.25;;;-4.40;99.90;;;;;;4233847;28;20063;-85
2022/12/14 01:51:46;;;;;;;32.33;13.48;;;-5.60;99.90;;;;;;4235366;28;20098;-85
2022/12/14 01:53:52;;;;;;;31.98;13.18;;;-4.10;99.90;;;;;;4230437;28;20424;-86
2022/12/14 01:55:56;;;;;;;32.97;14.75;;;-4.50;99.90;;;;;;4229427;28;20492;-85
2022/12/14 01:58:22;;;;;;;33.00;12.57;;;-4.20;99.90;;;;;;4229031;28;20044;-85
2022/12/14 02:00:33;;;;;;;;;;;-4.50;99.90;;;;;;4246044;28;20118;-85
2022/12/14 02:03:02;;;;;;;31.63;11.63;;;-4.50;99.90;;;;;;4228263;28;19920;-86
2022/12/14 02:05:07;;;;;;;38.40;13.50;;;-4.00;99.90;;;;;;4243282;28;20107;-85
2022/12/14 02:07:14;;;;;;;38.33;14.98;;;-4.40;99.90;;;;;;4227872;28;20074;-85
2022/12/14 02:09:25;;;;;;;38.53;14.77;;;-4.70;99.90;;;;;;4227020;28;20047;-85
2022/12/14 02:12:05;;;;;;;39.33;15.02;;;-4.50;99.90;;;;;;4227838;28;20103;-85
2022/12/14 02:14:08;;;;;;;37.13;13.27;;;-3.10;99.90;;;;;;4233276;28;20059;-85
2022/12/14 02:16:11;;;;;;;36.55;14.43;;;-4.60;99.90;;;;;;4210928;28;20045;-85
2022/12/14 02:18:21;;;;;;;37.67;14.80;;;-3.70;99.90;;;;;;4210558;28;20040;-86
2022/12/14 02:21:05;;;;;;;33.03;12.77;;;-4.70;99.90;;;;;;4228807;28;20100;-85
2022/12/14 02:23:54;;;;;;;29.20;11.27;;;-4.70;99.90;;;;;;4211959;28;20105;-85
2022/12/14 02:26:18;;;;;;;28.33;12.25;;;-4.60;99.90;;;;;;4210935;28;20044;-85
2022/12/14 02:28:34;;;;;;;31.10;11.77;;;-5.90;99.90;;;;;;4245408;28;20050;-85
2022/12/14 02:30:49;;;;;;;28.98;12.27;;;-4.90;99.90;;;;;;4215615;28;20024;-85
2022/12/14 02:33:25;;;;;;;31.67;13.02;;;-4.80;99.90;;;;;;4216735;28;20136;-85
2022/12/14 02:35:47;;;;;;;27.52;12.57;;;-5.00;99.90;;;;;;4229571;28;20119;-85
2022/12/14 02:38:25;;;;;;;34.25;13.60;;;-5.00;99.90;;;;;;4218411;28;20111;-85
2022/12/14 02:40:40;;;;;;;32.65;13.05;;;-6.30;99.90;;;;;;4191571;28;20115;-85
2022/12/14 02:43:02;;;;;;;38.88;13.60;;;-5.80;99.90;;;;;;4211103;28;20072;-84
2022/12/14 02:45:21;;;;;;;35.67;13.70;;;-5.00;99.90;;;;;;4210816;28;20127;-85
2022/12/14 02:47:57;;;;;;;34.42;12.57;;;-5.10;99.90;;;;;;4206974;28;20052;-85
2022/12/14 02:50:23;;;;;;;37.13;13.38;;;-5.20;99.90;;;;;;4229184;28;20416;-85
2022/12/14 02:52:44;;;;;;;;;;;-5.10;99.90;;;;;;4228023;28;20040;-85
2022/12/14 02:55:07;;;;;;;34.20;11.27;;;-5.10;99.90;;;;;;4210427;28;19924;-85
2022/12/14 02:57:25;;;;;;;31.95;12.18;;;-5.00;99.90;;;;;;4228261;28;20048;-85
2022/12/14 02:59:35;;;;;;;34.60;14.15;;;-5.10;99.90;;;;;;4209847;28;20125;-85
2022/12/14 03:01:43;;;;;;;32.20;12.57;;;-5.00;99.90;;;;;;4211491;28;20084;-85
2022/12/14 03:03:48;;;;;;;36.65;13.45;;;-5.10;99.90;;;;;;4226475;28;20044;-85
2022/12/14 03:06:15;;;;;;;33.00;12.90;;;-4.80;99.90;;;;;;4227640;28;20432;-85
2022/12/14 03:08:30;;;;;;;32.05;13.85;;;-4.60;99.90;;;;;;4211573;28;20145;-85
2022/12/14 03:10:46;;;;;;;36.33;12.93;;;-5.20;99.90;;;;;;4211009;28;20055;-85
2022/12/14 03:13:05;;;;;;;32.85;13.32;;;-5.20;99.90;;;;;;4226808;28;20059;-85
2022/12/14 03:15:12;;;;;;;32.95;13.55;;;-5.20;99.90;;;;;;4226385;28;20117;-85
2022/12/14 03:17:33;;;;;;;42.63;13.80;;;-5.00;99.90;;;;;;4229292;28;20051;-85
2022/12/14 03:19:52;;;;;;;30.67;12.35;;;-5.40;99.90;;;;;;4227422;28;20112;-85
2022/12/14 03:22:06;;;;;;;32.83;13.98;;;-5.00;99.90;;;;;;4210726;28;20048;-85
2022/12/14 03:24:18;;;;;;;34.22;13.50;;;-5.50;99.90;;;;;;4228047;28;20540;-85
2022/12/14 03:26:35;;;;;;;34.97;13.85;;;-5.30;99.90;;;;;;4228986;28;20044;-85
2022/12/14 03:28:59;;;;;;;32.83;13.35;;;-5.70;99.90;;;;;;4211000;28;20076;-85
2022/12/14 03:31:09;;;;;;;36.20;14.18;;;-5.50;99.90;;;;;;4210788;28;20051;-85
2022/12/14 03:33:21;;;;;;;37.33;12.90;;;-5.60;99.90;;;;;;4229824;28;20123;-84
2022/12/14 03:35:42;;;;;;;35.58;14.25;;;-6.40;99.90;;;;;;4210852;28;20136;-84
2022/12/14 03:38:21;;;;;;;35.13;13.48;;;-5.60;99.90;;;;;;4211470;28;20055;-84
2022/12/14 03:40:50;;;;;;;36.72;13.50;;;-5.60;99.90;;;;;;4228035;28;20554;-85
2022/12/14 03:43:16;;;;;;;35.75;13.50;;;-5.60;99.90;;;;;;4233695;28;20059;-84
2022/12/14 03:45:45;;;;;;;32.67;13.15;;;-6.50;99.90;;;;;;4245013;28;20047;-84
2022/12/14 03:47:56;;;;;;;33.38;13.20;;;-4.60;99.90;;;;;;4228228;28;20181;-85
2022/12/14 03:50:37;;;;;;;38.00;13.85;;;-5.70;99.90;;;;;;4229046;28;20543;-84
2022/12/14 03:52:54;;;;;;;33.10;13.13;;;-4.00;99.90;;;;;;4228091;28;20047;-85
2022/12/14 03:55:10;;;;;;;39.85;13.88;;;-5.70;99.90;;;;;;4227940;28;20044;-85
2022/12/14 03:57:31;;;;;;;31.10;12.40;;;-5.60;99.90;;;;;;4227830;28;20127;-85
2022/12/14 03:59:52;;;;;;;35.28;14.40;;;-5.70;99.90;;;;;;4227769;28;20108;-85
2022/12/14 04:02:24;;;;;;;33.47;13.65;;;-7.20;99.90;;;;;;4238430;28;20054;-84
2022/12/14 04:04:49;;;;;;;29.17;12.48;;;-6.90;99.90;;;;;;4210610;28;20040;-84
2022/12/14 04:07:29;;;;;;;31.75;12.38;;;-5.80;99.90;;;;;;4209985;28;20080;-84
2022/12/14 04:10:02;;;;;;;35.20;12.57;;;-5.70;99.90;;;;;;4228351;28;20091;-84
2022/12/14 04:20:57;;;;;;;33.15;11.38;;;-7.50;99.90;;;;;;4228452;28;20051;-85
2022/12/14 04:26:01;;;;;;;32.47;13.23;;;-5.80;99.90;;;;;;4211816;28;20048;-85
2022/12/14 04:26:17;;;;;;;33.35;11.85;;;-5.80;99.90;;;;;;4227859;28;20060;-84
2022/12/14 04:31:03;;;;;;;32.15;12.23;;;-6.90;99.90;;;;;;4245201;28;20051;-85
2022/12/14 04:35:41;;;;;;;31.88;13.15;;;-6.00;99.90;;;;;;4233685;28;20109;-84
2022/12/14 04:37:51;;;;;;;38.88;14.77;;;-5.30;99.90;;;;;;4212119;28;20486;-84
2022/12/14 04:40:08;;;;;;;35.45;13.10;;;-5.80;99.90;;;;;;4227687;28;20028;-84
2022/12/14 04:42:20;;;;;;;40.05;12.88;;;-5.90;99.90;;;;;;4227948;28;20043;-84
2022/12/14 04:44:38;;;;;;;40.22;14.77;;;-6.80;99.90;;;;;;4227772;28;20044;-84
2022/12/14 04:46:43;;;;;;;41.90;14.70;;;-5.80;99.90;;;;;;4211646;28;20052;-85
2022/12/14 04:49:06;;;;;;;31.40;12.55;;;-6.00;99.90;;;;;;4211805;28;20059;-85
2022/12/14 04:51:32;;;;;;;40.33;15.70;;;-5.90;99.90;;;;;;4210714;28;20044;-85
2022/12/14 04:53:40;;;;;;;35.42;13.07;;;-5.80;99.90;;;;;;4227484;28;20056;-85
2022/12/14 04:56:33;;;;;;;38.65;12.80;;;-6.00;99.90;;;;;;4226737;28;20048;-85
2022/12/14 04:58:43;;;;;;;32.50;13.13;;;-7.10;99.90;;;;;;4176146;28;20445;-85
2022/12/14 05:01:09;;;;;;;30.90;12.70;;;-5.30;99.90;;;;;;4215003;28;20625;-85
2022/12/14 05:03:36;;;;;;;36.58;14.10;;;-5.30;99.90;;;;;;4210780;28;20041;-85
2022/12/14 05:06:12;;;;;;;36.05;11.82;;;-6.00;99.90;;;;;;4211465;28;20044;-85
2022/12/14 05:08:33;;;;;;;35.15;12.48;;;-6.00;99.90;;;;;;4227771;28;20055;-83
2022/12/14 05:10:52;;;;;;;33.25;12.43;;;-6.10;99.90;;;;;;4233291;28;20035;-84
2022/12/14 05:13:01;;;;;;;35.95;13.50;;;-6.00;99.90;;;;;;4227745;28;20128;-85
2022/12/14 05:15:14;;;;;;;37.70;14.15;;;-5.50;99.90;;;;;;4229459;28;20044;-85
2022/12/14 05:17:26;;;;;;;34.10;13.73;;;-6.60;99.90;;;;;;4216187;28;20040;-84
2022/12/14 05:19:50;;;;;;;31.48;12.75;;;-6.10;99.90;;;;;;4229993;28;20115;-85
2022/12/14 05:21:58;;;;;;;33.53;13.13;;;-4.40;99.90;;;;;;4231075;28;20040;-85
2022/12/14 05:24:04;;;;;;;34.03;13.17;;;-6.20;99.90;;;;;;4214657;28;20052;-84
2022/12/14 05:26:13;;;;;;;36.75;13.90;;;-6.10;99.90;;;;;;4232672;28;20032;-84
2022/12/14 05:28:21;;;;;;;31.95;13.80;;;-6.70;99.90;;;;;;4246174;28;20067;-84
2022/12/14 05:30:25;;;;;;;36.67;13.38;;;-5.90;99.90;;;;;;4251188;28;20082;-85
2022/12/14 05:33:14;;;;;;;31.98;12.50;;;-6.20;99.90;;;;;;4233297;28;20040;-85
2022/12/14 05:35:16;;;;;;;;;;;-6.10;99.90;;;;;;4234464;28;20038;-85
2022/12/14 05:37:24;;;;;;;34.30;12.60;;;-6.20;99.90;;;;;;4215890;28;19987;-85
2022/12/14 05:39:34;;;;;;;34.42;13.25;;;-6.80;99.90;;;;;;4214627;28;20040;-86
2022/12/14 05:41:43;;;;;;;37.17;13.13;;;-6.20;99.90;;;;;;4213479;28;20063;-86
2022/12/14 05:43:55;;;;;;;29.90;12.10;;;-6.30;99.90;;;;;;4247555;28;20052;-86
2022/12/14 05:46:02;;;;;;;35.65;13.55;;;-6.30;99.90;;;;;;4214474;28;20056;-85
2022/12/14 05:48:12;;;;;;;38.80;12.95;;;-6.60;99.90;;;;;;4236830;28;20039;-85
2022/12/14 05:50:17;;;;;;;34.55;11.98;;;-6.30;99.90;;;;;;4248293;28;20073;-85
2022/12/14 05:52:25;;;;;;;33.03;12.95;;;-7.00;99.90;;;;;;4231479;28;20071;-85
2022/12/14 05:54:35;;;;;;;33.60;12.55;;;-6.40;99.90;;;;;;4248014;28;20103;-85
2022/12/14 05:56:46;;;;;;;34.33;12.23;;;-6.40;99.90;;;;;;4231960;28;20040;-85
2022/12/14 05:58:53;;;;;;;36.13;12.45;;;-6.50;99.90;;;;;;4232047;28;20044;-85
2022/12/14 06:01:07;;;;;;;33.63;13.20;;;-5.40;99.90;;;;;;4246812;28;20071;-86
2022/12/14 06:03:17;;;;;;;38.25;13.10;;;-7.10;99.90;;;;;;4233009;28;20059;-85
2022/12/14 06:05:27;;;;;;;33.53;13.15;;;-6.50;99.90;;;;;;4242733;28;20046;-85
2022/12/14 06:07:32;;;;;;;35.15;12.40;;;-6.50;99.90;;;;;;4214600;28;20122;-86
2022/12/14 06:09:38;;;;;;;34.22;12.15;;;-6.60;99.90;;;;;;4214372;28;20051;-85
2022/12/14 06:11:51;;;;;;;38.33;13.57;;;-6.30;99.90;;;;;;4232207;28;20044;-86
2022/12/14 06:13:58;;;;;;;29.48;12.27;;;-6.70;99.90;;;;;;4214312;28;20106;-85
2022/12/14 06:16:16;;;;;;;36.58;13.45;;;-6.60;99.90;;;;;;4214598;28;20048;-85
2022/12/14 06:18:26;;;;;;;32.53;12.45;;;-7.60;99.90;;;;;;4214846;28;20086;-85
2022/12/14 06:20:34;;;;;;;38.28;13.15;;;-8.20;99.90;;;;;;4231815;28;20044;-85
2022/12/14 06:22:39;;;;;;;38.88;14.05;;;-6.60;99.90;;;;;;4214778;28;20068;-86
2022/12/14 06:24:51;;;;;;;34.80;12.38;;;-6.60;99.90;;;;;;4231863;28;20040;-86
2022/12/14 06:27:02;;;;;;;36.00;12.98;;;-6.60;99.90;;;;;;4215129;28;20041;-85
2022/12/14 06:29:12;;;;;;;35.70;13.98;;;-6.60;99.90;;;;;;4214553;28;20032;-86
2022/12/14 06:31:27;;;;;;;33.25;13.25;;;-6.60;99.90;;;;;;4246017;28;20079;-85
2022/12/14 06:33:31;;;;;;;33.47;11.25;;;-5.10;99.90;;;;;;4241031;28;20044;-85
2022/12/14 06:35:34;;;;;;;34.97;13.88;;;-6.60;99.90;;;;;;4248448;28;20044;-85
2022/12/14 06:37:38;;;;;;;36.47;12.95;;;-7.20;99.90;;;;;;4229552;28;20036;-84
2022/12/14 06:39:43;;;;;;;35.22;13.45;;;-6.60;99.90;;;;;;4248914;28;20040;-85
2022/12/14 06:41:52;;;;;;;33.03;13.48;;;-6.60;99.90;;;;;;4248025;28;20063;-85
2022/12/14 06:44:04;;;;;;;;;;;-7.50;99.90;;;;;;4247854;28;20524;-85
2022/12/14 06:46:20;;;;;;;36.10;13.70;;;-6.50;99.90;;;;;;4232177;28;19998;-84
2022/12/14 06:48:27;;;;;;;42.13;14.07;;;-6.50;99.90;;;;;;4232316;28;20040;-85
2022/12/14 06:50:35;;;;;;;30.58;12.90;;;-6.50;99.90;;;;;;4231392;28;20036;-85
2022/12/14 06:52:42;;;;;;;33.90;13.75;;;;;;;;;;4232027;28;20039;-85
2022/12/14 06:54:48;;;;;;;41.53;16.15;;;;;;;;;;4231375;28;20040;-86
2022/12/14 06:57:04;;;;;;;37.60;14.02;;;;;;;;;;4247471;28;20048;-85
2022/12/14 06:59:16;;;;;;;43.63;15.90;;;;;;;;;;4248099;28;20064;-85
2022/12/14 07:01:21;;;;;;;39.60;15.98;;;;;;;;;;4232370;28;20036;-84
2022/12/14 07:03:26;;;;;;;42.92;18.00;;;;;;;;;;4235763;28;20048;-85
2022/12/14 07:05:30;;;;;;;44.72;18.08;;;;;;;;;;4216048;28;20072;-85
2022/12/14 07:07:39;;;;;;;42.67;19.27;;;;;;;;;;4214909;28;20068;-86
2022/12/14 07:09:41;;;;;;;44.30;17.20;;;;;;;;;;4232309;28;20067;-85
2022/12/14 07:11:45;;;;;;;44.00;18.27;;;;;;;;;;4214802;28;20040;-84
2022/12/14 07:14:06;;;;;;;45.67;17.40;;;;;;;;;;4231987;28;20091;-86
2022/12/14 07:16:12;;;;;;;31.63;12.77;;;;;;;;;;4215663;28;20045;-86
2022/12/14 07:18:15;;;;;;;36.15;14.23;;;-8.10;99.90;;;;;;4232115;28;20044;-86
2022/12/14 07:20:19;;;;;;;38.40;15.15;;;-6.70;99.90;;;;;;4231568;28;20053;-86
2022/12/14 07:22:25;;;;;;;38.85;13.95;;;-6.70;99.90;;;;;;4241125;28;20073;-85
2022/12/14 07:24:33;;;;;;;38.15;14.73;;;-6.70;99.90;;;;;;4234413;28;20048;-84
2022/12/14 07:26:36;;;;;;;41.05;14.88;;;-6.50;99.90;;;;;;4233658;28;20042;-85
2022/12/14 07:28:41;;;;;;;38.42;14.35;;;-6.90;99.90;;;;;;4248753;27;20036;-86
2022/12/14 07:30:45;;;;;;;37.20;13.90;;;-6.70;99.90;;;;;;4231016;28;20097;-84
2022/12/14 07:32:48;;;;;;;34.72;13.95;;;-6.80;99.90;;;;;;4228522;28;20443;-86
2022/12/14 07:34:53;;;;;;;34.70;14.10;;;-6.70;99.90;;;;;;4230589;28;20060;-86
2022/12/14 07:37:01;;;;;;;43.33;15.02;;;-6.80;99.90;;;;;;4213642;28;20044;-85
2022/12/14 07:39:15;;;;;;;40.42;13.68;;;-6.20;99.90;;;;;;4225758;28;20044;-83
2022/12/14 07:41:33;;;;;;;33.78;11.80;;;-6.70;99.90;;;;;;4232775;28;20048;-84
2022/12/14 07:43:39;;;;;;;35.70;13.23;;;-6.80;99.90;;;;;;4231333;28;20111;-83
2022/12/14 07:45:50;;;;;;;36.92;12.77;;;-7.00;99.90;;;;;;4215369;28;20036;-83
2022/12/14 07:47:59;;;;;;;42.33;13.60;;;-6.90;99.90;;;;;;4212204;28;20053;-84
2022/12/14 07:50:01;;;;;;;;;;;-6.90;99.90;;;;;;4214305;28;20071;-84
2022/12/14 07:52:05;;;;;;;38.47;14.65;;;-6.60;99.90;;;;;;4234527;28;19911;-84
2022/12/14 07:54:11;;;;;;;33.22;13.63;;;-6.80;99.90;;;;;;4218850;28;20044;-83
2022/12/14 07:56:20;;;;;;;38.00;12.75;;;-6.40;99.90;;;;;;4242232;28;20099;-84
2022/12/14 07:58:28;;;;;;;38.72;14.57;;;-6.70;99.90;;;;;;4254060;27;20023;-84
2022/12/14 08:00:38;;;;;;;40.15;14.38;;;-6.70;99.90;;;;;;4231889;28;20067;-83
2022/12/14 08:02:46;;;;;;;33.55;13.20;;;-6.80;99.90;;;;;;4231743;28;20089;-84
2022/12/14 08:04:56;;;;;;;36.40;14.27;;;-6.80;99.90;;;;;;4247651;28;20072;-84
2022/12/14 08:07:11;;;;;;;36.28;13.77;;;-6.70;99.90;;;;;;4232985;28;20035;-83
2022/12/14 08:09:16;;;;;;;33.47;13.80;;;-5.20;99.90;;;;;;4248355;28;20051;-85
2022/12/14 08:11:21;;;;;;;38.58;14.63;;;-6.50;99.90;;;;;;4229011;28;20073;-84
2022/12/14 08:13:30;;;;;;;35.10;14.65;;;-6.70;99.90;;;;;;4246499;28;20060;-84
2022/12/14 08:15:51;;;;;;;39.58;14.70;;;-6.80;99.90;;;;;;4247242;28;20043;-84
2022/12/14 08:18:01;;;;;;;39.40;13.20;;;-6.50;99.90;;;;;;4248237;28;20050;-84
2022/12/14 08:20:04;;;;;;;32.35;13.48;;;-6.50;99.90;;;;;;4239252;28;20035;-83
2022/12/14 08:22:13;;;;;;;31.10;13.35;;;-6.50;99.90;;;;;;4231830;28;20032;-84
2022/12/14 08:24:29;;;;;;;34.30;13.27;;;-7.90;99.90;;;;;;4213545;28;20041;-83
2022/12/14 08:26:37;;;;;;;34.13;12.85;;;-6.20;99.90;;;;;;4213542;28;20082;-84
2022/12/14 08:28:48;;;;;;;37.20;14.18;;;-6.30;99.90;;;;;;4230460;28;20068;-83
2022/12/14 08:31:06;;;;;;;39.60;14.20;;;-5.00;99.90;;;;;;4213443;28;20531;-85
2022/12/14 08:33:14;;;;;;;44.95;14.05;;;-6.60;99.90;;;;;;4228148;28;20071;-84
2022/12/14 08:35:26;;;;;;;40.42;14.40;;;-5.90;99.90;;;;;;4229451;28;20063;-84
2022/12/14 08:37:29;;;;;;;39.00;14.65;;;-4.20;99.90;;;;;;4228968;28;20044;-83
2022/12/14 08:39:32;;;;;;;34.70;13.98;;;-5.50;99.90;;;;;;4229244;28;20044;-84
2022/12/14 08:41:34;;;;;;;43.63;14.40;;;-5.40;99.90;;;;;;4229429;28;20594;-83
2022/12/14 08:43:41;;;;;;;38.22;13.82;;;-4.30;99.90;;;;;;4228037;28;20039;-84
2022/12/14 08:45:45;;;;;;;45.13;15.13;;;-4.80;99.90;;;;;;4228846;28;20126;-83
2022/12/14 08:47:48;;;;;;;37.28;13.90;;;-4.60;99.90;;;;;;4209401;28;20055;-85
2022/12/14 08:49:59;;;;;;;38.28;15.18;;;-4.70;99.90;;;;;;4227600;28;20048;-84
2022/12/14 08:52:00;;;;;;;33.63;13.13;;;-2.40;99.90;;;;;;4228167;28;20052;-84
2022/12/14 08:54:03;;;;;;;33.92;13.50;;;-3.60;99.90;;;;;;4226513;28;20044;-83
2022/12/14 08:56:09;;;;;;;34.10;14.05;;;-3.10;99.90;;;;;;4224787;28;20397;-84
2022/12/14 08:58:12;;;;;;;38.45;13.63;;;-1.50;99.90;;;;;;4221867;28;20044;-85
2022/12/14 09:00:15;;;;;;;32.78;12.38;;;-1.80;99.90;;;;;;4222191;28;20106;-84
2022/12/14 09:02:17;;;;;;;35.08;13.23;;;-2.80;99.90;;;;;;4206870;28;20056;-83
2022/12/14 09:04:19;;;;;;;37.17;13.75;;;-1.00;99.90;;;;;;4231853;28;20040;-84
2022/12/14 09:06:27;;;;;;;31.30;13.07;;;0.50;99.90;;;;;;4223625;28;20077;-83
2022/12/14 09:08:27;;;;;;;30.42;13.30;;;1.20;99.90;;;;;;4243671;28;20047;-83
2022/12/14 09:10:29;;;;;;;34.20;13.30;;;2.30;99.90;;;;;;4233721;28;20040;-84
2022/12/14 09:12:29;;;;;;;31.40;13.85;;;2.00;99.90;;;;;;4220550;28;20058;-84
2022/12/14 09:14:30;;;;;;;32.85;13.40;;;4.00;99.90;;;;;;4220053;28;20051;-83
2022/12/14 09:16:32;;;;;;;34.33;13.60;;;3.00;99.90;;;;;;4221646;28;20064;-85
2022/12/14 09:18:34;;;;;;;36.38;14.05;;;4.80;99.90;;;;;;4221210;28;20109;-84
2022/12/14 09:20:35;;;;;;;34.17;14.48;;;4.30;99.90;;;;;;4202833;28;20231;-85
2022/12/14 09:22:36;;;;;;;31.08;12.48;;;4.20;99.60;;;;;;4231344;28;20563;-83
2022/12/14 09:24:37;;;;;;;33.42;13.57;;;6.00;99.60;;;;;;4236230;28;20096;-84
2022/12/14 09:26:38;;;;;;;35.35;14.15;;;5.10;98.70;;;;;;4236255;28;20042;-86
2022/12/14 09:28:40;;;;;;;31.20;13.13;;;5.60;98.00;;;;;;4219304;28;20075;-85
2022/12/14 09:30:41;;;;;;;30.42;12.55;;;5.80;97.70;;;;;;4229516;28;20072;-85
2022/12/14 09:32:45;;;;;;;31.45;11.98;;;6.10;97.30;;;;;;4209918;28;20087;-85
2022/12/14 09:34:46;;;;;;;33.65;13.70;;;5.10;96.30;;;;;;4220312;28;20095;-84
2022/12/14 09:36:47;;;;;;;26.30;11.93;;;6.20;96.70;;;;;;4211030;28;20500;-84
2022/12/14 09:38:50;;;;;;;26.55;12.02;;;6.30;96.20;;;;;;4217843;28;20101;-84
2022/12/14 09:40:56;;;;;;;27.67;11.48;;;6.40;95.90;;;;;;4217776;28;20079;-84
2022/12/14 09:43:04;;;;;;;26.67;11.15;;;6.50;95.90;;;;;;4235077;28;20051;-84
2022/12/14 09:45:38;;;;;;;27.38;12.75;;;6.40;95.70;;;;;;4223414;28;20056;-84
2022/12/14 09:47:57;;;;;;;30.83;13.15;;;6.30;95.20;;;;;;4216138;28;20060;-85
2022/12/14 09:50:05;;;;;;;27.02;11.88;;;6.10;95.20;;;;;;4227724;28;20049;-84
2022/12/14 09:52:14;;;;;;;26.53;11.67;;;6.00;95.90;;;;;;4235784;28;20502;-84
2022/12/14 09:54:21;;;;;;;27.95;11.75;;;5.60;95.30;;;;;;4236418;28;20504;-84
2022/12/14 09:56:22;;;;;;;29.40;11.40;;;4.80;95.90;;;;;;4234563;28;20043;-84
2022/12/14 09:58:28;;;;;;;27.95;11.63;;;4.60;96.00;;;;;;4234108;28;20482;-85
2022/12/14 10:00:39;;;;;;;29.77;13.00;;;4.10;96.20;;;;;;4218168;28;20084;-85
2022/12/14 10:03:02;;;;;;;26.60;10.68;;;3.80;96.50;;;;;;4223628;28;20070;-85
2022/12/14 10:05:23;;;;;;;33.53;10.75;;;3.30;97.20;;;;;;4201025;28;20108;-85
2022/12/14 10:07:37;;;;;;;28.00;12.27;;;4.30;97.60;;;;;;4217278;28;20094;-83
2022/12/14 10:10:06;;;;;;;23.25;10.80;;;2.90;98.50;;;;;;4200821;28;20416;-84
2022/12/14 10:12:39;;;;;;;30.65;12.40;;;2.60;98.70;;;;;;4218835;28;20070;-84
2022/12/14 10:14:46;;;;;;;31.73;13.82;;;2.60;98.30;;;;;;4217028;28;20070;-84
2022/12/14 10:16:52;;;;;;;22.52;10.13;;;2.60;99.30;;;;;;4201965;28;20045;-84
2022/12/14 10:19:11;;;;;;;26.77;11.30;;;2.70;99.40;;;;;;4201759;28;20536;-84
2022/12/14 10:21:15;;;;;;;30.63;12.48;;;2.60;98.50;;;;;;4220899;28;20483;-85
2022/12/14 10:23:22;;;;;;;28.95;11.10;;;2.70;98.70;;;;;;4202865;28;20048;-85
2022/12/14 10:25:25;;;;;;;27.70;12.35;;;1.40;98.60;;;;;;4218354;28;20059;-86
2022/12/14 10:27:28;;;;;;;27.90;12.43;;;2.60;98.10;;;;;;4217520;28;20070;-84
2022/12/14 10:29:45;;;;;;;30.90;12.20;;;3.00;98.70;;;;;;4217670;28;20134;-85
2022/12/14 10:31:48;;;;;;;27.50;11.63;;;2.90;98.50;;;;;;4217142;28;20043;-85
2022/12/14 10:33:55;;;;;;;28.95;11.65;;;4.40;98.90;;;;;;4217581;28;20055;-86
2022/12/14 10:36:25;;;;;;;27.23;11.90;;;4.80;98.40;;;;;;4217942;28;20096;-86
2022/12/14 10:38:30;;;;;;;23.17;11.15;;;3.50;98.10;;;;;;4217502;28;20054;-86
2022/12/14 10:40:33;;;;;;;26.95;12.23;;;3.30;98.40;;;;;;4217283;28;20123;-86
2022/12/14 10:42:36;;;;;;;30.05;9.98;;;4.20;97.50;;;;;;4216051;28;20052;-86
2022/12/14 10:45:05;;;;;;;24.42;11.40;;;3.90;98.40;;;;;;4217032;28;20055;-86
2022/12/14 10:47:36;;;;;;;22.90;10.55;;;3.90;97.20;;;;;;4232165;28;20044;-87
2022/12/14 10:50:17;;;;;;;24.75;10.20;;;3.80;97.40;;;;;;4234048;28;20073;-86
2022/12/14 10:52:21;;;;;;;25.83;10.85;;;4.00;97.50;;;;;;4228871;28;20510;-87
2022/12/14 10:54:37;;;;;;;22.80;10.75;;;4.70;97.30;;;;;;4233835;28;20044;-87
2022/12/14 10:56:42;;;;;;;19.05;8.57;;;3.90;97.10;;;;;;4230334;28;20556;-87
2022/12/14 10:58:43;;;;;;;22.13;9.57;;;3.90;97.20;;;;;;4232820;28;20067;-87
2022/12/14 11:00:44;;;;;;;24.20;10.50;;;5.00;97.60;;;;;;4233039;28;20089;-87
2022/12/14 11:02:49;;;;;;;22.15;10.15;;;5.00;96.40;;;;;;4227035;28;20078;-87
2022/12/14 11:04:55;;;;;;;23.60;11.02;;;5.00;97.00;;;;;;4225814;28;20086;-87
2022/12/14 11:07:05;;;;;;;24.05;11.30;;;4.20;96.60;;;;;;4218680;28;20052;-88
2022/12/14 11:09:20;;;;;;;23.30;10.93;;;4.10;96.90;;;;;;4220437;28;20047;-86
2022/12/14 11:11:26;;;;;;;20.40;9.20;;;4.60;96.60;;;;;;4200218;28;20059;-87
2022/12/14 11:13:27;;;;;;;24.35;10.13;;;4.30;96.50;;;;;;4216437;28;20447;-87
2022/12/14 11:15:36;;;;;;;20.48;10.02;;;4.50;95.60;;;;;;4217356;28;20044;-87
2022/12/14 11:17:41;;;;;;;35.80;10.48;;;4.60;95.00;;;;;;4224047;28;20152;-87
2022/12/14 11:19:42;;;;;;;25.35;11.90;;;3.60;95.80;;;;;;4218770;28;20055;-86
2022/12/14 11:21:44;;;;;;;26.25;11.68;;;5.20;96.00;;;;;;4230271;28;20052;-87
2022/12/14 11:23:53;;;;;;;24.33;11.63;;;5.20;96.50;;;;;;4216855;28;20512;-88
2022/12/14 11:26:00;;;;;;;25.13;11.35;;;5.70;96.80;;;;;;4216106;28;20103;-87